Time;durP1;ratioP1;P1;durP2;ratioP2;P2;SDS_P1;SDS_P2;PMS_P1;PMS_P2;Temp;Humidity;BMP_temperature;BMP_pressure;BME280_temperature;BME280_humidity;BME280_pressure;Samples;Min_cycle;Max_cycle;Signal;HPM_P1;HPM_P2
2022/01/05 00:00:56;;;;;;;1.38;0.50;;;;;;;4.23;83.91;98620.25;5043682;28;20053;-46
2022/01/05 00:03:23;;;;;;;2.22;0.47;;;;;;;4.19;83.57;98616.03;5035832;28;20765;-46
2022/01/05 00:05:50;;;;;;;0.63;0.40;;;;;;;4.08;83.34;98608.50;5036708;28;20440;-47
2022/01/05 00:08:20;;;;;;;2.63;0.40;;;;;;;4.01;83.23;98608.63;5043129;28;20103;-46
2022/01/05 00:10:47;;;;;;;1.52;0.60;;;;;;;3.87;83.56;98610.56;5034788;28;20478;-50
2022/01/05 00:13:14;;;;;;;1.73;0.50;;;;;;;3.79;83.61;98624.34;5036529;28;20060;-46
2022/01/05 00:15:41;;;;;;;2.70;0.60;;;;;;;3.69;83.38;98607.41;5036395;28;20049;-46
2022/01/05 00:18:10;;;;;;;1.13;0.50;;;;;;;3.57;83.09;98615.25;5039713;28;20045;-46
2022/01/05 00:20:37;;;;;;;1.50;0.40;;;;;;;3.52;83.48;98619.59;5038863;28;20052;-46
2022/01/05 00:23:04;;;;;;;1.55;0.50;;;;;;;3.47;83.68;98627.34;5037456;28;20064;-47
2022/01/05 00:25:31;;;;;;;3.55;0.50;;;;;;;3.42;82.62;98628.25;5051570;28;20559;-48
2022/01/05 00:27:59;;;;;;;4.13;0.57;;;;;;;3.29;81.89;98621.63;5042772;28;20048;-48
2022/01/05 00:30:26;;;;;;;3.53;1.10;;;;;;;3.24;82.31;98626.78;5034116;28;20996;-47
2022/01/05 00:32:53;;;;;;;1.67;0.60;;;;;;;3.19;81.82;98636.25;5033207;28;20052;-47
2022/01/05 00:35:21;;;;;;;3.88;0.70;;;;;;;3.16;81.95;98634.56;5041043;28;20056;-47
2022/01/05 00:37:49;;;;;;;1.73;0.50;;;;;;;3.13;81.90;98637.16;5043858;28;20064;-47
2022/01/05 00:40:16;;;;;;;6.90;0.68;;;;;;;3.06;82.07;98638.06;5034898;28;20577;-48
2022/01/05 00:42:43;;;;;;;3.70;0.60;;;;;;;3.01;81.47;98633.88;5035623;28;20053;-47
2022/01/05 00:45:10;;;;;;;4.55;0.90;;;;;;;2.96;81.81;98639.03;5033259;28;20848;-46
2022/01/05 00:47:37;;;;;;;1.98;0.60;;;;;;;2.91;81.88;98645.94;5040984;28;20280;-47
2022/01/05 00:50:05;;;;;;;4.78;0.70;;;;;;;2.87;82.25;98644.28;5044332;28;20843;-47
2022/01/05 00:52:34;;;;;;;2.40;0.55;;;;;;;2.85;81.43;98646.00;5032538;28;20071;-49
2022/01/05 00:55:01;;;;;;;2.85;0.80;;;;;;;2.78;81.95;98645.22;5040226;28;20516;-46
2022/01/05 00:57:28;;;;;;;3.45;0.85;;;;;;;2.77;82.04;98650.34;5045874;28;20052;-47
2022/01/05 00:59:55;;;;;;;3.00;0.98;;;;;;;2.71;82.64;98652.97;5037130;28;20502;-48
2022/01/05 01:02:22;;;;;;;3.47;0.70;;;;;;;2.67;82.03;98659.84;5034199;28;20485;-46
2022/01/05 01:04:50;;;;;;;8.02;2.50;;;;;;;2.63;82.02;98660.72;5034440;28;20056;-47
2022/01/05 01:07:17;;;;;;;3.67;1.02;;;;;;;2.58;82.19;98665.00;5039624;28;20049;-47
2022/01/05 01:09:46;;;;;;;6.00;1.27;;;;;;;2.51;82.01;98660.81;5032612;28;20059;-47
2022/01/05 01:12:13;;;;;;;7.18;1.08;;;;;;;2.44;82.07;98662.59;5037809;28;20056;-50
2022/01/05 01:14:40;;;;;;;4.00;0.88;;;;;;;2.41;82.05;98659.19;5046868;28;20475;-48
2022/01/05 01:17:07;;;;;;;4.63;1.17;;;;;;;2.35;81.26;98672.88;5040446;28;20078;-47
2022/01/05 01:19:34;;;;;;;4.95;0.95;;;;;;;2.32;81.74;98672.91;5036057;28;20060;-48
2022/01/05 01:22:02;;;;;;;5.45;1.38;;;;;;;2.31;81.65;98678.88;5035026;28;20057;-47
2022/01/05 01:24:30;;;;;;;5.13;1.20;;;;;;;2.29;81.24;98678.06;5036280;28;20055;-47
2022/01/05 01:26:58;;;;;;;6.05;1.40;;;;;;;2.26;81.25;98675.53;5034933;28;20549;-47
2022/01/05 01:29:26;;;;;;;7.40;2.65;;;;;;;2.23;81.30;98685.78;5037286;28;20061;-47
2022/01/05 01:31:53;;;;;;;4.18;1.08;;;;;;;2.21;81.12;98688.34;5034631;28;20053;-48
2022/01/05 01:34:20;;;;;;;2.85;0.90;;;;;;;2.20;81.63;98685.81;5042509;28;20056;-47
2022/01/05 01:36:47;;;;;;;4.18;1.02;;;;;;;2.18;81.49;98697.75;5045282;28;20044;-48
2022/01/05 01:39:14;;;;;;;4.90;1.10;;;;;;;2.12;81.54;98698.63;5046859;28;20067;-46
2022/01/05 01:41:41;;;;;;;9.70;1.52;;;;;;;2.08;81.38;98693.53;5040420;28;20505;-47
2022/01/05 01:44:10;;;;;;;6.93;1.50;;;;;;;2.08;81.63;98690.97;5036679;28;20057;-50
2022/01/05 01:46:37;;;;;;;4.05;1.05;;;;;;;2.05;81.96;98696.94;5034708;28;20670;-47
2022/01/05 01:49:04;;;;;;;9.68;2.78;;;;;;;2.00;81.33;98690.19;5035902;28;20045;-47
2022/01/05 01:51:32;;;;;;;19.95;7.00;;;;;;;1.96;81.14;98691.06;5039965;28;20084;-45
2022/01/05 01:53:59;;;;;;;9.52;2.22;;;;;;;1.90;82.15;98692.78;5043478;28;20387;-47
2022/01/05 01:56:27;;;;;;;9.77;3.55;;;;;;;1.87;81.51;98685.16;5039821;28;20398;-46
2022/01/05 01:58:54;;;;;;;18.15;6.15;;;;;;;1.87;82.10;98695.38;5045746;28;20076;-47
2022/01/05 02:01:23;;;;;;;10.00;2.10;;;;;;;1.89;82.04;98697.91;5041385;28;20068;-50
2022/01/05 02:03:50;;;;;;;6.40;2.00;;;;;;;1.87;82.32;98697.91;5036618;28;20064;-50
2022/01/05 02:06:17;;;;;;;8.65;2.03;;;;;;;1.86;82.30;98701.34;5037491;28;20502;-50
2022/01/05 02:08:44;;;;;;;17.40;5.53;;;;;;;1.84;82.15;98703.06;5035823;28;20048;-49
2022/01/05 02:11:14;;;;;;;27.77;7.80;;;;;;;1.79;82.75;98711.59;5038128;28;20146;-47
2022/01/05 02:13:41;;;;;;;11.80;3.33;;;;;;;1.78;82.89;98713.31;5034495;28;20524;-49
2022/01/05 02:16:09;;;;;;;4.78;1.50;;;;;;;1.79;83.68;98716.72;5042119;28;20049;-47
2022/01/05 02:21:25;;;;;;;7.57;1.30;;;;;;;1.82;83.00;98725.19;5035567;28;20056;-51
2022/01/05 02:23:53;;;;;;;4.65;1.83;;;;;;;1.81;83.73;98718.41;5034597;28;20053;-48
2022/01/05 02:26:20;;;;;;;10.23;3.53;;;;;;;1.80;83.11;98721.81;5034993;28;20064;-48
2022/01/05 02:28:47;;;;;;;8.80;3.20;;;;;;;1.78;83.42;98728.63;5042185;28;20080;-50
2022/01/05 02:31:14;;;;;;;6.53;2.13;;;;;;;1.77;83.80;98720.97;5047569;28;20060;-49
2022/01/05 02:33:42;;;;;;;6.28;1.67;;;;;;;1.77;83.40;98721.81;5039798;28;20056;-48
2022/01/05 02:36:12;;;;;;;3.50;1.13;;;;;;;1.74;84.05;98721.84;5048976;28;20072;-46
2022/01/05 02:38:41;;;;;;;7.03;1.50;;;;;;;1.71;83.78;98729.53;5040443;28;20488;-49
2022/01/05 02:41:10;;;;;;;4.65;1.52;;;;;;;1.68;83.72;98732.09;5042221;28;20048;-50
2022/01/05 02:43:38;;;;;;;11.02;2.35;;;;;;;1.66;84.07;98733.81;5036269;28;20049;-47
2022/01/05 02:46:06;;;;;;;3.78;1.00;;;;;;;1.65;84.58;98747.44;5036962;28;20048;-47
2022/01/05 02:48:33;;;;;;;5.85;1.30;;;;;;;1.66;84.31;98753.38;5035599;28;20060;-48
2022/01/05 02:51:01;;;;;;;8.05;1.60;;;;;;;1.63;83.73;98764.47;5040996;28;20508;-47
2022/01/05 02:53:28;;;;;;;9.00;1.50;;;;;;;1.62;84.40;98757.66;5044771;28;20064;-47
2022/01/05 02:55:56;;;;;;;5.97;1.60;;;;;;;1.61;84.17;98766.19;5037600;28;20057;-47
2022/01/05 02:58:23;;;;;;;7.20;1.38;;;;;;;1.62;84.01;98764.47;5036826;28;20060;-48
2022/01/05 03:00:51;;;;;;;6.07;1.20;;;;;;;1.60;84.13;98771.28;5036472;28;20044;-47
2022/01/05 03:03:18;;;;;;;4.32;1.27;;;;;;;1.59;84.02;98770.44;5036022;28;20045;-48
2022/01/05 03:05:45;;;;;;;6.57;1.58;;;;;;;1.58;84.53;98773.84;5035714;28;20053;-47
2022/01/05 03:08:12;;;;;;;8.88;2.10;;;;;;;1.60;84.17;98776.41;5034510;28;20057;-49
2022/01/05 03:10:39;;;;;;;10.50;1.80;;;;;;;1.61;84.27;98763.63;5034036;28;20485;-49
2022/01/05 03:13:08;;;;;;;6.78;1.40;;;;;;;1.61;84.41;98765.34;5033931;28;20410;-48
2022/01/05 03:15:36;;;;;;;8.00;1.65;;;;;;;1.65;84.89;98762.75;5041189;28;20059;-49
2022/01/05 03:18:03;;;;;;;4.97;1.40;;;;;;;1.69;85.03;98768.69;5043892;28;20060;-47
2022/01/05 03:20:31;;;;;;;4.53;1.45;;;;;;;1.75;84.52;98766.13;5042308;28;20057;-48
2022/01/05 03:22:58;;;;;;;5.55;1.77;;;;;;;1.80;84.97;98767.78;5042368;28;20041;-46
2022/01/05 03:25:26;;;;;;;3.58;1.20;;;;;;;1.84;84.67;98768.63;5046258;28;20202;-49
2022/01/05 03:27:55;;;;;;;5.20;1.20;;;;;;;1.87;84.58;98754.13;5043953;28;20410;-47
2022/01/05 03:30:25;;;;;;;6.57;1.58;;;;;;;1.89;84.34;98760.09;5040234;28;20057;-47
2022/01/05 03:35:36;;;;;;;3.70;1.42;;;;;;;1.90;84.30;98753.28;5035891;28;20065;-48
2022/01/05 03:38:04;;;;;;;3.97;1.27;;;;;;;1.90;83.94;98753.28;5038963;28;20517;-48
2022/01/05 03:40:32;;;;;;;7.95;1.30;;;;;;;1.88;83.32;98755.81;5044148;28;20057;-51
2022/01/05 03:42:59;;;;;;;6.07;1.13;;;;;;;1.89;83.09;98754.97;5039585;28;20106;-47
2022/01/05 03:45:28;;;;;;;7.60;1.55;;;;;;;1.90;83.23;98753.28;5046495;28;20053;-47
2022/01/05 03:47:55;;;;;;;6.82;1.98;;;;;;;1.88;83.21;98740.50;5040193;28;20666;-46
2022/01/05 03:50:22;;;;;;;10.88;2.10;;;;;;;1.86;83.15;98737.09;5037811;28;20061;-47
2022/01/05 03:52:49;;;;;;;6.70;1.60;;;;;;;1.83;83.05;98737.13;5043928;28;20055;-48
2022/01/05 03:55:16;;;;;;;8.43;1.83;;;;;;;1.85;83.41;98739.66;5045850;28;20049;-48
2022/01/05 03:57:43;;;;;;;6.45;1.45;;;;;;;1.83;83.38;98739.69;5038336;28;20057;-48
2022/01/05 04:00:11;;;;;;;6.80;1.50;;;;;;;1.83;83.60;98737.13;5038915;28;20109;-49
2022/01/05 04:02:40;;;;;;;6.47;1.65;;;;;;;1.82;83.22;98739.69;5039436;28;20053;-48
2022/01/05 04:05:08;;;;;;;9.05;2.17;;;;;;;1.81;83.27;98743.09;5038449;28;20057;-50
2022/01/05 04:07:35;;;;;;;10.18;2.42;;;;;;;1.81;83.90;98743.09;5041176;28;20457;-48
2022/01/05 04:10:03;;;;;;;9.35;1.85;;;;;;;1.77;83.40;98737.16;5040377;28;20053;-48
2022/01/05 04:12:30;;;;;;;8.52;1.60;;;;;;;1.74;83.64;98737.16;5038667;28;20052;-49
2022/01/05 04:14:57;;;;;;;4.72;1.30;;;;;;;1.73;83.71;98738.03;5043968;28;20391;-48
2022/01/05 04:17:24;;;;;;;4.35;1.48;;;;;;;1.72;83.96;98749.09;5040505;28;20052;-47
2022/01/05 04:19:53;;;;;;;6.97;1.50;;;;;;;1.70;84.05;98740.59;5041671;28;20402;-50
2022/01/05 04:22:20;;;;;;;5.07;1.38;;;;;;;1.70;84.31;98743.16;5037995;28;20102;-51
2022/01/05 04:24:47;;;;;;;7.75;1.95;;;;;;;1.69;84.25;98749.13;5039428;28;20494;-48
2022/01/05 04:27:15;;;;;;;7.97;2.15;;;;;;;1.70;84.40;98760.19;5040241;28;20057;-50
2022/01/05 04:29:42;;;;;;;12.05;2.08;;;;;;;1.69;84.31;98758.47;5044546;28;20051;-47
2022/01/05 04:32:10;;;;;;;8.57;1.77;;;;;;;1.69;84.41;98751.66;5039282;28;21934;-47
2022/01/05 04:34:38;;;;;;;7.97;1.75;;;;;;;1.67;84.14;98750.81;5042015;28;20379;-49
2022/01/05 04:37:07;;;;;;;7.28;2.05;;;;;;;1.66;83.93;98749.13;5041306;28;20402;-47
2022/01/05 04:39:35;;;;;;;8.05;1.85;;;;;;;1.66;83.93;98749.13;5043297;28;20056;-49
2022/01/05 04:42:02;;;;;;;7.20;1.88;;;;;;;1.66;84.02;98749.13;5040884;28;20056;-49
2022/01/05 04:44:29;;;;;;;6.20;1.33;;;;;;;1.66;83.56;98744.03;5037830;28;20060;-48
2022/01/05 04:46:56;;;;;;;11.77;1.83;;;;;;;1.66;83.56;98744.03;5036568;28;20087;-48
2022/01/05 04:49:24;;;;;;;8.95;1.83;;;;;;;1.66;83.48;98738.91;5043291;28;20303;-49
2022/01/05 04:51:51;;;;;;;7.05;2.13;;;;;;;1.66;84.07;98730.41;5037464;28;20056;-47
2022/01/05 04:54:19;;;;;;;10.65;2.63;;;;;;;1.62;84.37;98715.94;5041083;28;20053;-48
2022/01/05 04:56:46;;;;;;;7.28;1.85;;;;;;;1.62;84.29;98726.16;5044966;28;20057;-48
2022/01/05 04:59:14;;;;;;;7.22;2.40;;;;;;;1.64;84.51;98719.34;5040073;28;20378;-47
2022/01/05 05:01:41;;;;;;;8.18;2.50;;;;;;;1.63;84.41;98723.59;5037317;28;20052;-47
2022/01/05 05:04:08;;;;;;;6.75;1.85;;;;;;;1.63;84.67;98725.31;5038000;28;20049;-47
2022/01/05 05:06:35;;;;;;;7.70;2.20;;;;;;;1.60;84.42;98738.94;5041366;28;20057;-48
2022/01/05 05:09:02;;;;;;;5.55;2.03;;;;;;;1.58;84.88;98727.88;5042032;28;20065;-50
2022/01/05 05:11:31;;;;;;;9.82;3.38;;;;;;;1.53;84.63;98727.03;5039239;28;20072;-47
2022/01/05 05:13:58;;;;;;;7.88;2.80;;;;;;;1.52;84.94;98733.00;5038644;28;20037;-50
2022/01/05 05:16:25;;;;;;;8.18;1.83;;;;;;;1.52;85.00;98735.53;5039057;28;20056;-48
2022/01/05 05:18:52;;;;;;;8.35;1.80;;;;;;;1.52;84.97;98730.44;5037420;28;20103;-46
2022/01/05 05:21:19;;;;;;;7.50;2.20;;;;;;;1.51;85.00;98728.75;5041733;28;20045;-47
2022/01/05 05:23:46;;;;;;;21.73;8.55;;;;;;;1.48;85.02;98733.84;5036906;28;20433;-48
2022/01/05 05:26:13;;;;;;;5.38;1.73;;;;;;;1.42;85.04;98727.06;5039241;28;20127;-48
2022/01/05 05:28:42;;;;;;;10.50;1.70;;;;;;;1.41;84.94;98727.06;5038357;28;20076;-51
2022/01/05 05:31:09;;;;;;;11.82;3.15;;;;;;;1.39;84.80;98733.91;5036880;28;20061;-51
2022/01/05 05:33:36;;;;;;;11.48;3.00;;;;;;;1.36;85.01;98733.91;5037509;28;20049;-48
2022/01/05 05:36:04;;;;;;;44.67;14.75;;;;;;;1.36;85.53;98733.91;5037270;28;20061;-48
2022/01/05 05:38:31;;;;;;;15.75;2.10;;;;;;;1.37;85.65;98736.47;5038529;28;20052;-50
2022/01/05 05:40:58;;;;;;;8.23;2.20;;;;;;;1.37;85.73;98735.59;5036359;28;20045;-48
2022/01/05 05:43:25;;;;;;;15.07;2.80;;;;;;;1.33;85.41;98739.03;5034349;28;20052;-46
2022/01/05 05:45:54;;;;;;;10.88;2.95;;;;;;;1.30;85.53;98739.88;5037428;28;20053;-47
2022/01/05 05:48:21;;;;;;;9.93;2.30;;;;;;;1.27;85.75;98745.00;5043139;28;20771;-47
2022/01/05 05:50:48;;;;;;;11.18;2.95;;;;;;;1.26;85.89;98753.50;5039870;28;20048;-48
2022/01/05 05:53:16;;;;;;;8.45;2.88;;;;;;;1.26;85.97;98754.34;5039853;28;20378;-48
2022/01/05 05:55:43;;;;;;;7.50;1.90;;;;;;;1.23;86.20;98751.81;5035640;28;20078;-48
2022/01/05 05:58:10;;;;;;;13.30;2.58;;;;;;;1.23;86.62;98754.38;5036845;28;20060;-48
2022/01/05 06:00:37;;;;;;;10.90;2.10;;;;;;;1.20;86.40;98756.94;5036904;28;20061;-48
2022/01/05 06:03:06;;;;;;;6.28;1.67;;;;;;;1.18;86.67;98760.34;5044410;28;20060;-49
2022/01/05 06:05:33;;;;;;;5.80;1.60;;;;;;;1.18;86.41;98745.88;5038337;28;20498;-47
2022/01/05 06:08:01;;;;;;;6.45;1.60;;;;;;;1.16;86.53;98762.91;5040103;28;20048;-49
2022/01/05 06:10:28;;;;;;;9.27;2.70;;;;;;;1.16;86.25;98762.91;5038205;28;20095;-48
2022/01/05 06:12:55;;;;;;;10.45;2.55;;;;;;;1.17;86.76;98766.28;5039180;28;20634;-47
2022/01/05 06:15:22;;;;;;;6.95;2.10;;;;;;;1.17;86.40;98758.63;5037673;28;20461;-48
2022/01/05 06:17:50;;;;;;;8.38;1.80;;;;;;;1.15;86.54;98765.44;5044015;28;20060;-48
2022/01/05 06:20:18;;;;;;;12.07;2.67;;;;;;;1.14;86.86;98769.69;5034928;28;20508;-48
2022/01/05 06:22:45;;;;;;;8.18;2.88;;;;;;;1.13;86.63;98772.25;5040301;28;20052;-49
2022/01/05 06:25:13;;;;;;;8.85;2.50;;;;;;;1.12;86.54;98776.50;5041846;28;20052;-47
2022/01/05 06:27:41;;;;;;;10.82;2.30;;;;;;;1.10;87.01;98778.22;5040803;28;20061;-50
2022/01/05 06:30:09;;;;;;;7.32;2.15;;;;;;;1.06;86.99;98776.53;5037736;28;20061;-49
2022/01/05 06:32:42;;;;;;;8.85;2.85;;;;;;;1.02;86.79;98785.00;5035182;28;20053;-50
2022/01/05 06:35:10;;;;;;;8.27;2.80;;;;;;;1.01;87.14;98793.50;5041354;28;20052;-48
2022/01/05 06:37:38;;;;;;;9.05;2.70;;;;;;;0.97;87.36;98791.81;5042185;28;20583;-49
2022/01/05 06:40:07;;;;;;;14.00;2.47;;;;;;;0.98;87.65;98802.88;5034624;28;20106;-47
2022/01/05 06:42:34;;;;;;;9.60;3.03;;;;;;;0.97;86.97;98807.13;5036264;28;20061;-50
2022/01/05 06:45:01;;;;;;;10.15;2.60;;;;;;;0.95;87.17;98809.69;5044545;28;20049;-48
2022/01/05 06:47:28;;;;;;;12.13;4.15;;;;;;;0.92;87.89;98796.06;5043970;28;20036;-47
2022/01/05 06:49:55;;;;;;;10.80;4.38;;;;;;;0.89;87.71;98798.63;5038490;28;20053;-50
2022/01/05 06:52:22;;;;;;;6.35;2.60;;;;;;;0.86;87.97;98804.59;5037150;28;20067;-48
2022/01/05 06:54:51;;;;;;;7.22;3.33;;;;;;;0.85;nan;98791.84;5036919;28;20497;-46
2022/01/05 06:57:19;;;;;;;10.93;3.72;;;;;;;0.84;nan;98792.69;5043567;28;20057;-47
2022/01/05 06:59:46;;;;;;;13.35;4.65;;;;;;;0.83;88.29;98793.53;5044220;28;20059;-46
2022/01/05 07:02:13;;;;;;;7.38;3.75;;;;;;;0.81;88.65;98790.97;5043656;28;20401;-46
2022/01/05 07:04:40;;;;;;;14.68;4.40;;;;;;;0.78;88.66;98785.88;5038971;28;20791;-48
2022/01/05 07:07:08;;;;;;;11.65;4.88;;;;;;;0.77;88.64;98794.38;5039268;28;20063;-47
2022/01/05 07:09:35;;;;;;;15.30;4.88;;;;;;;0.75;88.83;98790.13;5036963;28;20056;-48
2022/01/05 07:12:04;;;;;;;13.43;4.65;;;;;;;0.72;89.15;98788.44;5031024;28;21663;-58
2022/01/05 07:14:31;;;;;;;11.38;4.63;;;;;;;0.70;88.99;98791.84;5039027;28;20049;-55
2022/01/05 07:16:58;;;;;;;11.18;4.65;;;;;;;0.68;88.84;98778.25;5041997;28;20052;-53
2022/01/05 07:19:25;;;;;;;11.30;4.38;;;;;;;0.63;89.28;98791.00;5042211;28;20057;-49
2022/01/05 07:21:52;;;;;;;14.18;5.47;;;;;;;0.57;89.56;98789.28;5046556;28;20101;-51
2022/01/05 07:24:19;;;;;;;13.57;4.70;;;;;;;0.54;89.79;98786.75;5034176;28;20072;-50
2022/01/05 07:26:47;;;;;;;10.85;4.72;;;;;;;0.52;89.82;98785.88;5032213;28;20052;-51
2022/01/05 07:29:18;;;;;;;12.15;4.70;;;;;;;0.50;90.09;98790.09;5035810;28;20064;-52
2022/01/05 07:31:45;;;;;;;16.25;5.13;;;;;;;0.47;89.79;98789.25;5036166;28;20057;-50
2022/01/05 07:34:13;;;;;;;17.65;5.28;;;;;;;0.46;90.15;98793.50;5037437;28;20379;-54
2022/01/05 07:36:40;;;;;;;13.52;4.72;;;;;;;0.44;90.02;98795.19;5043454;28;20091;-52
2022/01/05 07:39:08;;;;;;;16.00;5.72;;;;;;;0.43;90.39;98803.69;5041327;28;20486;-52
2022/01/05 07:41:37;;;;;;;16.25;5.43;;;;;;;0.42;90.26;98816.44;5038600;28;20084;-49
2022/01/05 07:44:05;;;;;;;16.55;5.50;;;;;;;0.39;90.64;98807.09;5038606;28;21479;-50
2022/01/05 07:46:34;;;;;;;11.18;4.53;;;;;;;0.41;90.58;98805.38;5037267;28;20052;-48
2022/01/05 07:49:02;;;;;;;12.52;5.95;;;;;;;0.42;90.51;98804.53;5036960;28;20091;-51
2022/01/05 07:51:29;;;;;;;15.77;5.13;;;;;;;0.42;90.70;98799.44;5040428;28;20052;-50
2022/01/05 07:53:56;;;;;;;14.15;5.80;;;;;;;0.43;90.65;98802.84;5037046;28;20083;-48
2022/01/05 07:56:23;;;;;;;15.15;6.10;;;;;;;0.44;90.49;98802.00;5036649;28;20053;-51
2022/01/05 07:58:50;;;;;;;15.80;6.70;;;;;;;0.43;90.75;98798.59;5039628;28;20347;-53
2022/01/05 08:01:19;;;;;;;14.13;5.70;;;;;;;0.45;90.74;98799.44;5036298;28;20179;-51
2022/01/05 08:03:47;;;;;;;17.70;5.68;;;;;;;0.48;90.60;98807.09;5035279;28;20502;-51
2022/01/05 08:06:17;;;;;;;15.20;5.80;;;;;;;0.54;90.65;98814.78;5032722;28;20442;-48
2022/01/05 08:08:44;;;;;;;11.55;5.43;;;;;;;0.61;90.24;98810.53;5036540;28;20507;-45
2022/01/05 08:11:12;;;;;;;13.40;5.32;;;;;;;0.66;90.34;98810.53;5042314;28;20049;-47
2022/01/05 08:13:39;;;;;;;18.25;7.30;;;;;;;0.73;90.07;98802.03;5031730;28;20474;-47
2022/01/05 08:16:06;;;;;;;19.48;7.20;;;;;;;0.76;89.93;98792.69;5038590;28;20084;-46
2022/01/05 08:18:33;;;;;;;18.67;7.95;;;;;;;0.80;90.20;98788.44;5038317;28;20045;-47
2022/01/05 08:21:03;;;;;;;19.17;7.05;;;;;;;0.82;90.09;98777.38;5036970;28;20079;-46
2022/01/05 08:23:30;;;;;;;17.48;5.93;;;;;;;0.87;89.89;98785.88;5038129;28;20044;-49
2022/01/05 08:25:57;;;;;;;15.73;5.82;;;;;;;0.92;89.83;98796.06;5035060;28;20065;-50
2022/01/05 08:28:24;;;;;;;13.85;5.45;;;;;;;0.99;89.30;98789.25;5035215;28;20048;-47
2022/01/05 08:30:51;;;;;;;14.38;5.47;;;;;;;1.05;88.53;98790.13;5036427;28;20106;-53
2022/01/05 08:33:19;;;;;;;13.60;4.82;;;;;;;1.10;88.33;98802.88;5036358;28;20056;-52
2022/01/05 08:35:48;;;;;;;12.55;5.05;;;;;;;1.11;88.09;98797.78;5031049;28;20135;-52
2022/01/05 08:38:18;;;;;;;12.05;4.82;;;;;;;1.17;88.42;98789.25;5032591;28;20056;-54
2022/01/05 08:40:45;;;;;;;14.05;5.20;;;;;;;1.24;88.38;98796.91;5035518;28;20059;-50
2022/01/05 08:43:14;;;;;;;13.52;5.32;;;;;;;1.31;87.44;98799.44;5038828;28;20053;-46
2022/01/05 08:45:43;;;;;;;8.75;3.92;;;;;;;1.38;87.26;98796.03;5036474;28;20682;-52
2022/01/05 08:48:11;;;;;;;15.60;3.92;;;;;;;1.43;87.07;98790.03;5030907;28;20045;-46
2022/01/05 08:50:39;;;;;;;9.23;3.40;;;;;;;1.46;86.83;98800.25;5033338;28;20059;-47
2022/01/05 08:53:07;;;;;;;10.95;3.58;;;;;;;1.49;86.81;98804.50;5032289;28;20056;-45
2022/01/05 08:55:38;;;;;;;10.10;4.00;;;;;;;1.51;86.40;98810.44;5032465;28;20057;-47
2022/01/05 08:58:06;;;;;;;11.52;3.70;;;;;;;1.55;87.00;98794.25;5030987;28;20044;-47
2022/01/05 09:00:35;;;;;;;10.68;3.45;;;;;;;1.55;86.33;98797.66;5031849;28;20686;-52
2022/01/05 09:03:02;;;;;;;9.35;3.22;;;;;;;1.58;86.29;98797.69;5032718;28;20053;-46
2022/01/05 09:05:30;;;;;;;9.63;2.80;;;;;;;1.59;85.57;98788.31;5032258;28;20126;-47
2022/01/05 09:07:57;;;;;;;11.70;3.95;;;;;;;1.60;85.08;98790.03;5032423;28;20501;-53
2022/01/05 09:10:24;;;;;;;10.80;3.78;;;;;;;1.62;85.82;98787.47;5034849;28;20102;-49
2022/01/05 09:12:56;;;;;;;12.10;4.13;;;;;;;1.67;85.40;98785.75;5035858;28;20312;-49
2022/01/05 09:15:23;;;;;;;9.05;3.67;;;;;;;1.68;85.38;98783.19;5038860;28;20378;-49
2022/01/05 09:17:51;;;;;;;10.15;3.70;;;;;;;1.70;85.30;98776.34;5032917;28;20045;-51
2022/01/05 09:20:19;;;;;;;10.68;3.72;;;;;;;1.74;85.99;98778.03;5014414;28;20545;-51
2022/01/05 09:22:46;;;;;;;12.32;4.50;;;;;;;1.80;85.65;98779.72;5032121;28;20057;-47
2022/01/05 09:25:18;;;;;;;14.30;4.45;;;;;;;1.87;85.10;98781.38;5032303;28;20051;-49
2022/01/05 09:27:45;;;;;;;12.98;4.15;;;;;;;1.98;85.26;98791.56;5031393;28;20056;-52
2022/01/05 09:30:15;;;;;;;11.77;4.00;;;;;;;2.09;84.75;98794.94;5036242;28;20419;-48
2022/01/05 09:32:42;;;;;;;17.70;7.45;;;;;;;2.18;83.85;98789.75;5036273;28;20126;-49
2022/01/05 09:35:14;;;;;;;10.18;3.78;;;;;;;2.22;83.96;98778.66;5035540;28;20060;-46
2022/01/05 09:37:51;;;;;;;15.20;4.20;;;;;;;2.21;83.61;98784.63;5032835;28;20041;-48
2022/01/05 09:43:05;;;;;;;8.88;3.45;;;;;;;2.17;83.46;98786.38;5044348;28;20064;-46
2022/01/05 09:45:36;;;;;;;12.40;4.00;;;;;;;2.20;83.35;98788.03;5036820;28;20386;-57
2022/01/05 09:48:21;;;;;;;13.15;4.65;;;;;;;2.24;82.60;98786.31;5051640;28;20040;-53
2022/01/05 09:50:55;;;;;;;9.60;4.00;;;;;;;2.31;82.90;98788.84;5052247;28;20144;-55
2022/01/05 09:53:25;;;;;;;10.27;4.13;;;;;;;2.41;83.01;98793.03;5036695;28;20052;-51
2022/01/05 09:55:52;;;;;;;10.98;4.40;;;;;;;2.51;82.89;98804.88;5037838;28;20061;-54
2022/01/05 09:58:21;;;;;;;11.15;3.60;;;;;;;2.52;81.07;98800.63;5038025;28;20056;-53
2022/01/05 10:00:50;;;;;;;8.60;3.40;;;;;;;2.55;81.55;98795.47;5034030;28;20044;-49
2022/01/05 10:03:18;;;;;;;10.23;4.07;;;;;;;2.56;81.10;98801.44;5036191;28;20060;-50
2022/01/05 10:05:46;;;;;;;9.63;4.10;;;;;;;2.56;80.62;98801.44;5032085;28;20460;-46
2022/01/05 10:08:14;;;;;;;10.43;3.95;;;;;;;2.56;80.69;98811.69;5032484;28;20053;-48
2022/01/05 10:10:43;;;;;;;18.30;9.55;;;;;;;2.58;80.26;98817.63;5032190;28;20052;-49
2022/01/05 10:13:10;;;;;;;7.88;3.33;;;;;;;2.55;80.46;98813.38;5033470;28;20540;-51
2022/01/05 10:15:38;;;;;;;6.97;3.80;;;;;;;2.53;80.44;98815.94;5034716;28;20041;-46
2022/01/05 10:18:14;;;;;;;12.75;5.32;;;;;;;2.53;80.27;98827.91;5035693;28;20049;-49
2022/01/05 10:21:02;;;;;;;8.68;3.30;;;;;;;2.44;80.20;98821.13;5033933;28;20494;-48
2022/01/05 10:23:41;;;;;;;8.13;3.83;;;;;;;2.40;80.42;98831.38;5032829;28;20149;-51
2022/01/05 10:26:27;;;;;;;10.48;3.55;;;;;;;2.32;80.74;98828.03;5034392;28;20045;-47
2022/01/05 10:28:57;;;;;;;7.45;3.10;;;;;;;2.24;81.38;98815.28;5041366;28;20061;-49
2022/01/05 10:31:26;;;;;;;12.93;4.13;;;;;;;2.28;81.36;98804.19;5033812;28;20498;-49
2022/01/05 10:33:56;;;;;;;9.45;3.88;;;;;;;2.33;80.92;98802.44;5034288;28;20150;-50
2022/01/05 10:36:24;;;;;;;8.13;3.40;;;;;;;2.42;81.41;98802.41;5034587;28;20056;-50
2022/01/05 10:38:53;;;;;;;10.45;3.78;;;;;;;2.52;80.85;98796.34;5035441;28;20159;-49
2022/01/05 10:41:22;;;;;;;11.02;3.50;;;;;;;2.65;79.94;98796.28;5033362;28;20048;-50
2022/01/05 10:44:10;;;;;;;14.95;6.68;;;;;;;2.76;79.37;98787.66;5037839;28;20502;-50
2022/01/05 10:46:40;;;;;;;9.55;4.15;;;;;;;2.87;79.54;98792.69;5031806;28;20061;-53
2022/01/05 10:49:09;;;;;;;9.55;4.05;;;;;;;2.96;79.43;98792.63;5032782;28;20049;-51
2022/01/05 10:51:37;;;;;;;7.90;3.30;;;;;;;3.03;77.99;98794.25;5033865;28;20492;-51
2022/01/05 10:54:12;;;;;;;10.32;3.13;;;;;;;3.11;77.91;98802.72;5033451;28;20056;-51
2022/01/05 10:56:40;;;;;;;6.47;2.85;;;;;;;3.16;77.75;98805.25;5034891;28;20076;-55
2022/01/05 10:59:08;;;;;;;7.43;2.75;;;;;;;3.19;77.25;98799.25;5031576;28;20049;-48
2022/01/05 11:01:36;;;;;;;6.00;2.70;;;;;;;3.21;76.92;98802.66;5035689;28;20049;-49
2022/01/05 11:04:19;;;;;;;9.50;3.00;;;;;;;3.26;77.04;98793.22;5032882;28;20064;-52
2022/01/05 11:07:07;;;;;;;9.95;3.22;;;;;;;3.31;76.54;98794.88;5032854;28;20061;-50
2022/01/05 11:09:52;;;;;;;7.93;3.33;;;;;;;3.38;76.43;98793.09;5026677;28;21312;-56
2022/01/05 11:12:19;;;;;;;9.77;3.28;;;;;;;3.46;76.14;98797.25;5032834;28;20624;-47
2022/01/05 11:14:46;;;;;;;7.85;2.65;;;;;;;3.53;74.92;98795.47;5033450;28;20500;-46
2022/01/05 11:17:17;;;;;;;11.68;3.42;;;;;;;3.61;75.40;98796.25;5035379;28;20051;-52
2022/01/05 11:19:46;;;;;;;10.52;2.35;;;;;;;3.68;73.71;98799.59;5041082;28;20068;-55
2022/01/05 11:22:15;;;;;;;6.70;2.88;;;;;;;3.71;73.99;98795.28;5038815;28;20107;-52
2022/01/05 11:24:45;;;;;;;10.27;3.53;;;;;;;3.73;72.95;98798.69;5037452;28;20049;-48
2022/01/05 11:27:15;;;;;;;8.77;2.97;;;;;;;3.78;73.70;98791.78;5039478;28;20569;-53
2022/01/05 11:29:44;;;;;;;8.88;2.83;;;;;;;3.87;73.49;98792.53;5039305;28;20527;-52
2022/01/05 11:32:15;;;;;;;8.52;3.22;;;;;;;3.92;73.06;98790.75;5032698;28;20056;-50
2022/01/05 11:34:43;;;;;;;15.32;3.80;;;;;;;3.93;72.86;98779.66;5030715;28;20052;-49
2022/01/05 11:37:13;;;;;;;11.60;2.92;;;;;;;3.96;72.71;98780.44;5041448;28;20056;-46
2022/01/05 11:39:44;;;;;;;8.73;3.38;;;;;;;4.00;72.50;98776.13;5039062;28;20053;-49
2022/01/05 11:42:15;;;;;;;8.95;2.83;;;;;;;4.00;71.95;98771.00;5038891;28;20088;-48
2022/01/05 11:44:47;;;;;;;10.88;2.97;;;;;;;4.04;71.40;98775.22;5040241;28;20079;-50
2022/01/05 11:47:20;;;;;;;9.60;2.67;;;;;;;3.99;71.17;98759.91;5045143;28;20041;-48
2022/01/05 11:49:47;;;;;;;11.23;2.97;;;;;;;3.97;71.19;98765.91;5037731;28;20788;-46
2022/01/05 11:52:17;;;;;;;7.28;2.50;;;;;;;3.96;72.00;98761.66;5039411;28;20143;-46